Weather at Springfield Branson National Airport

Public forecast

Using degrees Fahrenheit for public forecast. Weather courtesy of forecast.io.

Current aviation weather report (METAR) for Springfield Branson National Airport

Retrieved 2021/01/16 15:52 UTC (1 hour ago):

KSGF 161552Z 28011KT 10SM OVC011 M01/M03 A2995 RMK AO2 SLP153 T10111033

Aviation forecast (TAF) for Springfield Branson National Airport

Retrieved 2021/01/16 12:22 UTC (5 hours ago):

TAF KSGF 161120Z 1612/1712 30012G17KT P6SM OVC012 FM162300 27006KT P6SM SCT150